createdAt,value
2022-10-28T00:00:00.546Z,16.2
2022-10-28T00:05:07.551Z,16.2
2022-10-28T00:10:14.505Z,16.3
2022-10-28T00:15:21.446Z,16.4
2022-10-28T00:20:28.396Z,16.3
2022-10-28T00:25:35.393Z,16.4
2022-10-28T00:30:42.356Z,16.3
2022-10-28T00:35:49.286Z,16.4
2022-10-28T00:40:56.366Z,16.4
2022-10-28T00:46:03.476Z,16.1
2022-10-28T00:51:10.577Z,16.1
2022-10-28T00:56:17.707Z,16.1
2022-10-28T01:01:24.809Z,16.1
2022-10-28T01:06:31.927Z,16.1
2022-10-28T01:11:39.025Z,16
2022-10-28T01:16:46.133Z,16
2022-10-28T01:21:53.233Z,16.1
2022-10-28T01:27:00.359Z,16
2022-10-28T01:32:07.490Z,15.9
2022-10-28T01:37:14.649Z,16
2022-10-28T01:42:21.797Z,15.9
2022-10-28T01:47:29.206Z,15.9
2022-10-28T01:52:36.576Z,15.8
2022-10-28T01:57:43.925Z,15.8
2022-10-28T02:02:51.303Z,15.7
2022-10-28T02:07:58.683Z,15.8
2022-10-28T02:13:06.119Z,15.9
2022-10-28T02:18:13.570Z,15.6
2022-10-28T02:23:20.935Z,15.8
2022-10-28T02:28:28.308Z,15.7
2022-10-28T02:33:35.731Z,15.8
2022-10-28T02:38:43.072Z,16
2022-10-28T02:43:50.458Z,15.7
2022-10-28T02:48:57.835Z,15.7
2022-10-28T02:54:05.874Z,15.7
2022-10-28T02:59:13.871Z,15.5
2022-10-28T03:04:21.872Z,15.6
2022-10-28T03:09:29.869Z,15.6
2022-10-28T03:14:37.906Z,15.5
2022-10-28T03:19:45.911Z,15.5
2022-10-28T03:24:52.449Z,15.5
2022-10-28T03:29:59.403Z,15.6
2022-10-28T03:35:06.354Z,15.4
2022-10-28T03:40:13.297Z,15.7
2022-10-28T03:45:20.233Z,15.5
2022-10-28T03:50:27.188Z,15.3
2022-10-28T03:55:34.141Z,15.3
2022-10-28T04:00:41.099Z,15
2022-10-28T04:05:48.029Z,14.8
2022-10-28T04:10:54.982Z,14.6
2022-10-28T04:16:01.985Z,15
2022-10-28T04:21:08.919Z,15.1
2022-10-28T04:26:15.927Z,15.1
2022-10-28T04:31:22.912Z,14.8
2022-10-28T04:36:29.887Z,14.8
2022-10-28T04:41:36.866Z,14.9
2022-10-28T04:46:43.919Z,14.9
2022-10-28T04:51:50.877Z,14.9
2022-10-28T04:56:57.840Z,15.1
2022-10-28T05:02:04.807Z,15.1
2022-10-28T05:07:11.792Z,14.9
2022-10-28T05:12:18.753Z,15.1
2022-10-28T05:17:25.754Z,15.1
2022-10-28T05:22:32.710Z,15.1
2022-10-28T05:27:39.616Z,15.1
2022-10-28T05:32:46.629Z,14.8
2022-10-28T05:37:53.571Z,15
2022-10-28T05:43:00.595Z,15.1
2022-10-28T05:48:07.593Z,15.1
2022-10-28T05:53:14.569Z,15.2
2022-10-28T05:58:21.588Z,15.3
2022-10-28T06:03:28.591Z,15.3
2022-10-28T06:08:35.592Z,15.2
2022-10-28T06:13:41.070Z,15.1
2022-10-28T06:18:48.060Z,15.1
2022-10-28T06:23:55.085Z,15.2
2022-10-28T06:29:02.139Z,15.5
2022-10-28T06:34:09.149Z,15.5
2022-10-28T06:39:16.305Z,15.7
2022-10-28T06:44:23.411Z,15.9
2022-10-28T06:49:32.103Z,15.8
2022-10-28T06:54:39.176Z,15.9
2022-10-28T06:59:46.305Z,15.9
2022-10-28T07:04:53.439Z,16.2
2022-10-28T07:10:00.511Z,16.6
2022-10-28T07:15:07.597Z,17.3
2022-10-28T07:20:14.637Z,17.6
2022-10-28T07:25:21.681Z,17
2022-10-28T07:30:28.673Z,17.1
2022-10-28T07:35:35.651Z,17
2022-10-28T07:40:42.656Z,16.9
2022-10-28T07:45:49.881Z,18
2022-10-28T07:50:57.091Z,17.7
2022-10-28T07:56:04.294Z,17.4
2022-10-28T08:01:11.553Z,18.3
2022-10-28T08:06:18.784Z,19.5
2022-10-28T08:11:25.845Z,20
2022-10-28T08:16:32.985Z,20.3
2022-10-28T08:21:40.047Z,21.1
2022-10-28T08:26:47.159Z,21.3
2022-10-28T08:31:54.259Z,21.5
2022-10-28T08:37:01.352Z,21.6
2022-10-28T08:42:08.403Z,21.4
2022-10-28T08:47:15.499Z,21.6
2022-10-28T08:52:23.179Z,21.9
2022-10-28T08:57:29.407Z,21.7
2022-10-28T09:02:36.009Z,22.2
2022-10-28T09:07:42.610Z,23.1
2022-10-28T09:12:49.182Z,22.4
2022-10-28T09:17:55.729Z,23.4
2022-10-28T09:23:02.244Z,21.7
2022-10-28T09:28:08.743Z,21.6
2022-10-28T09:33:15.307Z,22.2
2022-10-28T09:38:21.727Z,23.6
2022-10-28T09:43:28.212Z,24.4
2022-10-28T09:48:34.675Z,24
2022-10-28T09:53:41.129Z,23.2
2022-10-28T09:58:47.609Z,23
2022-10-28T10:03:54.141Z,22.8
2022-10-28T10:09:00.572Z,23.5
2022-10-28T10:14:07.015Z,23.9
2022-10-28T10:19:13.548Z,24.2
2022-10-28T10:24:20.029Z,24.7
2022-10-28T10:29:26.565Z,23.8
2022-10-28T10:34:32.932Z,25
2022-10-28T10:39:39.409Z,25.2
2022-10-28T10:44:45.887Z,25.1
2022-10-28T10:49:52.321Z,25.4
2022-10-28T10:54:58.740Z,24.7
2022-10-28T11:00:05.245Z,24.7
2022-10-28T11:05:11.645Z,24.5
2022-10-28T11:10:18.117Z,25.1
2022-10-28T11:15:24.621Z,23.6
2022-10-28T11:20:31.128Z,23.2
2022-10-28T11:25:37.679Z,22.8
2022-10-28T11:30:44.212Z,24.3
2022-10-28T11:35:50.742Z,25.5
2022-10-28T11:40:57.253Z,24.3
2022-10-28T11:46:03.767Z,23.5
2022-10-28T11:51:10.293Z,26
2022-10-28T11:56:16.780Z,26.5
2022-10-28T12:01:23.279Z,26.3
2022-10-28T12:06:29.742Z,26.8
2022-10-28T12:11:36.292Z,26.4
2022-10-28T12:16:42.861Z,26.7
2022-10-28T12:21:49.378Z,27.3
2022-10-28T12:26:55.986Z,26
2022-10-28T12:32:02.457Z,25.7
2022-10-28T12:37:08.957Z,26.5
2022-10-28T12:42:15.545Z,25.8
2022-10-28T12:47:22.180Z,25.5
2022-10-28T12:52:28.692Z,25.4
2022-10-28T12:57:35.298Z,26.2
2022-10-28T13:02:41.927Z,25.7
2022-10-28T13:07:48.497Z,25.3
2022-10-28T13:12:55.116Z,25
2022-10-28T13:18:01.931Z,24.4
2022-10-28T13:23:08.727Z,24.4
2022-10-28T13:28:15.576Z,25
2022-10-28T13:33:22.397Z,23.9
2022-10-28T13:38:29.241Z,23.6
2022-10-28T13:43:36.056Z,24.3
2022-10-28T13:48:42.889Z,24
2022-10-28T13:53:49.758Z,23.7
2022-10-28T13:58:56.624Z,23.5
2022-10-28T14:04:03.489Z,23.3
2022-10-28T14:09:10.337Z,22.7
2022-10-28T14:14:17.257Z,22.3
2022-10-28T14:19:24.177Z,22
2022-10-28T14:24:31.739Z,21.9
2022-10-28T14:29:37.922Z,21.8
2022-10-28T14:34:44.481Z,21.6
2022-10-28T14:39:51.085Z,21.4
2022-10-28T14:44:57.646Z,21.4
2022-10-28T14:50:04.257Z,21.3
2022-10-28T14:55:10.884Z,21
2022-10-28T15:00:17.565Z,20.9
2022-10-28T15:05:24.238Z,20.6
2022-10-28T15:10:30.894Z,20.7
2022-10-28T15:15:37.559Z,20.7
2022-10-28T15:20:44.281Z,20.5
2022-10-28T15:25:50.982Z,20.4
2022-10-28T15:30:57.691Z,20.3
2022-10-28T15:36:04.420Z,20.3
2022-10-28T15:41:11.137Z,20
2022-10-28T15:46:17.891Z,20
2022-10-28T15:51:24.569Z,20.1
2022-10-28T15:56:31.319Z,19.9
2022-10-28T16:01:38.042Z,19.8
2022-10-28T16:06:44.795Z,19.7
2022-10-28T16:11:51.562Z,20
2022-10-28T16:16:58.307Z,19.8
2022-10-28T16:22:05.007Z,19.7
2022-10-28T16:27:11.878Z,19.6
2022-10-28T16:32:18.655Z,19.5
2022-10-28T16:37:25.616Z,19.4
2022-10-28T16:42:32.621Z,19.6
2022-10-28T16:47:39.628Z,19.4
2022-10-28T16:52:46.580Z,19.6
2022-10-28T16:57:53.612Z,19.6
2022-10-28T17:03:00.577Z,19.7
2022-10-28T17:08:07.566Z,19.7
2022-10-28T17:13:14.609Z,19.7
2022-10-28T17:18:21.578Z,19.9
2022-10-28T17:23:28.562Z,19.8
2022-10-28T17:28:35.565Z,19.8
2022-10-28T17:33:42.543Z,19.7
2022-10-28T17:38:49.488Z,19.7
2022-10-28T17:43:56.706Z,19.9
2022-10-28T17:49:03.956Z,19.8
2022-10-28T17:54:11.137Z,19.6
2022-10-28T17:59:18.319Z,19.4
2022-10-28T18:04:25.563Z,19.7
2022-10-28T18:09:32.720Z,19.5
2022-10-28T18:14:40.004Z,19.5
2022-10-28T18:19:47.149Z,19.5
2022-10-28T18:24:54.282Z,19.4
2022-10-28T18:30:01.414Z,19.4
2022-10-28T18:35:08.601Z,19.3
2022-10-28T18:40:15.809Z,19.6
2022-10-28T18:45:23.061Z,19.6
2022-10-28T18:50:30.820Z,19.4
2022-10-28T18:55:37.305Z,19.3
2022-10-28T19:00:44.120Z,19.3
2022-10-28T19:05:50.953Z,19.2
2022-10-28T19:10:57.761Z,19.2
2022-10-28T19:16:04.683Z,19.1
2022-10-28T19:21:11.404Z,19.1
2022-10-28T19:26:18.260Z,19.2
2022-10-28T19:31:25.124Z,19.2
2022-10-28T19:36:32.015Z,19.2
2022-10-28T19:41:38.888Z,19
2022-10-28T19:46:45.663Z,19.2
2022-10-28T19:51:52.485Z,19.2
2022-10-28T19:56:59.346Z,19
2022-10-28T20:02:06.111Z,19
2022-10-28T20:07:12.974Z,18.9
2022-10-28T20:12:19.806Z,18.8
2022-10-28T20:17:26.607Z,18.8
2022-10-28T20:22:33.449Z,18.7
2022-10-28T20:27:40.298Z,18.8
2022-10-28T20:32:47.166Z,18.5
2022-10-28T20:37:54.062Z,18.4
2022-10-28T20:43:01.009Z,18.7
2022-10-28T20:48:07.889Z,18.5
2022-10-28T20:53:14.731Z,18.2
2022-10-28T20:58:21.604Z,18.4
2022-10-28T21:03:28.609Z,18.3
2022-10-28T21:08:35.610Z,18.4
2022-10-28T21:13:42.624Z,18.3
2022-10-28T21:18:49.653Z,18.2
2022-10-28T21:23:56.655Z,18.5
2022-10-28T21:29:03.764Z,18.5
2022-10-28T21:34:10.800Z,18.8
2022-10-28T21:39:17.806Z,18.9
2022-10-28T21:44:24.821Z,18.8
2022-10-28T21:49:31.828Z,19.2
2022-10-28T21:54:38.818Z,19.1
2022-10-28T21:59:45.890Z,19.2
2022-10-28T22:04:52.892Z,19.1
2022-10-28T22:10:00.182Z,19.1
2022-10-28T22:15:07.394Z,19
2022-10-28T22:20:14.606Z,19
2022-10-28T22:25:21.842Z,18.8
2022-10-28T22:30:29.015Z,18.6
2022-10-28T22:35:36.241Z,18.5
2022-10-28T22:40:43.417Z,18.5
2022-10-28T22:45:50.616Z,18.6
2022-10-28T22:50:57.881Z,18.7
2022-10-28T22:56:05.137Z,18.7
2022-10-28T23:01:12.405Z,18.4
2022-10-28T23:06:19.687Z,18.5
2022-10-28T23:11:26.930Z,18.4
2022-10-28T23:16:34.762Z,18.2
2022-10-28T23:21:41.245Z,18
2022-10-28T23:26:48.148Z,17.8
2022-10-28T23:31:54.979Z,18
2022-10-28T23:37:01.886Z,17.8
2022-10-28T23:42:08.845Z,17.7
2022-10-28T23:47:15.674Z,17.7
2022-10-28T23:52:22.579Z,17.8
2022-10-28T23:57:29.510Z,17.9
